createdAt,value
2019-03-23T00:00:39.889Z,1001.5
2019-03-23T00:01:39.896Z,1001.49
2019-03-23T00:02:39.908Z,1001.54
2019-03-23T00:03:39.865Z,1001.52
2019-03-23T00:04:39.854Z,1001.53
2019-03-23T00:05:39.849Z,1001.52
2019-03-23T00:06:39.843Z,1001.51
2019-03-23T00:07:39.835Z,1001.54
2019-03-23T00:08:39.832Z,1001.51
2019-03-23T00:09:39.829Z,1001.51
2019-03-23T00:10:39.812Z,1001.53
2019-03-23T00:11:39.808Z,1001.5
2019-03-23T00:12:39.793Z,1001.49
2019-03-23T00:13:39.799Z,1001.53
2019-03-23T00:14:39.780Z,1001.53
2019-03-23T00:15:39.778Z,1001.49
2019-03-23T00:16:39.768Z,1001.55
2019-03-23T00:17:39.760Z,1001.55
2019-03-23T00:18:39.752Z,1001.53
2019-03-23T00:19:39.742Z,1001.51
2019-03-23T00:20:39.743Z,1001.51
2019-03-23T00:21:39.729Z,1001.53
2019-03-23T00:22:39.723Z,1001.49
2019-03-23T00:23:39.716Z,1001.51
2019-03-23T00:24:39.707Z,1001.48
2019-03-23T00:25:39.700Z,1001.47
2019-03-23T00:26:39.693Z,1001.51
2019-03-23T00:27:39.682Z,1001.49
2019-03-23T00:28:39.681Z,1001.49
2019-03-23T00:29:39.672Z,1001.48
2019-03-23T00:30:39.661Z,1001.47
2019-03-23T00:31:39.659Z,1001.46
2019-03-23T00:32:39.648Z,1001.44
2019-03-23T00:33:39.640Z,1001.42
2019-03-23T00:34:39.631Z,1001.44
2019-03-23T00:35:39.629Z,1001.41
2019-03-23T00:36:41.574Z,1001.41
2019-03-23T00:37:39.610Z,1001.41
2019-03-23T00:38:39.603Z,1001.44
2019-03-23T00:39:39.596Z,1001.4
2019-03-23T00:40:39.595Z,1001.43
2019-03-23T00:41:39.589Z,1001.39
2019-03-23T00:42:39.575Z,1001.38
2019-03-23T00:43:39.567Z,1001.41
2019-03-23T00:44:39.561Z,1001.35
2019-03-23T00:45:39.551Z,1001.34
2019-03-23T00:46:39.557Z,1001.34
2019-03-23T00:47:39.540Z,1001.3
2019-03-23T00:48:39.529Z,1001.28
2019-03-23T00:49:39.524Z,1001.33
2019-03-23T00:50:39.519Z,1001.32
2019-03-23T00:51:39.507Z,1001.35
2019-03-23T00:52:39.500Z,1001.33
2019-03-23T00:53:39.503Z,1001.36
2019-03-23T00:54:39.486Z,1001.41
2019-03-23T00:55:39.481Z,1001.39
2019-03-23T00:56:39.472Z,1001.4
2019-03-23T00:57:39.463Z,1001.41
2019-03-23T00:58:39.459Z,1001.38
2019-03-23T00:59:39.453Z,1001.37
2019-03-23T01:00:39.451Z,1001.42
2019-03-23T01:01:39.447Z,1001.4
2019-03-23T01:02:41.681Z,1001.38
2019-03-23T01:03:39.427Z,1001.38
2019-03-23T01:04:39.417Z,1001.39
2019-03-23T01:05:39.410Z,1001.39
2019-03-23T01:06:39.404Z,1001.32
2019-03-23T01:07:39.390Z,1001.34
2019-03-23T01:08:39.382Z,1001.36
2019-03-23T01:09:39.383Z,1001.37
2019-03-23T01:10:39.380Z,1001.4
2019-03-23T01:11:39.359Z,1001.34
2019-03-23T01:12:39.356Z,1001.36
2019-03-23T01:13:39.359Z,1001.42
2019-03-23T01:14:39.334Z,1001.37
2019-03-23T01:15:39.325Z,1001.4
2019-03-23T01:16:39.327Z,1001.4
2019-03-23T01:17:39.319Z,1001.39
2019-03-23T01:18:39.303Z,1001.37
2019-03-23T01:19:39.302Z,1001.38
2019-03-23T01:20:49.030Z,1001.42
2019-03-23T01:21:39.345Z,1001.39
2019-03-23T01:22:39.274Z,1001.35
2019-03-23T01:23:39.271Z,1001.33
2019-03-23T01:24:39.274Z,1001.31
2019-03-23T01:25:39.265Z,1001.31
2019-03-23T01:26:39.257Z,1001.28
2019-03-23T01:27:39.237Z,1001.29
2019-03-23T01:28:39.230Z,1001.29
2019-03-23T01:29:39.246Z,1001.28
2019-03-23T01:30:39.215Z,1001.28
2019-03-23T01:31:39.207Z,1001.27
2019-03-23T01:32:39.196Z,1001.31
2019-03-23T01:33:39.187Z,1001.29
2019-03-23T01:34:39.187Z,1001.31
2019-03-23T01:35:39.177Z,1001.3
2019-03-23T01:36:39.168Z,1001.31
2019-03-23T01:37:39.165Z,1001.31
2019-03-23T01:38:39.169Z,1001.32
2019-03-23T01:39:39.158Z,1001.34
2019-03-23T01:40:39.135Z,1001.3
2019-03-23T01:41:39.134Z,1001.3
2019-03-23T01:42:39.279Z,1001.32
2019-03-23T01:43:39.121Z,1001.29
2019-03-23T01:44:39.117Z,1001.3
2019-03-23T01:45:39.112Z,1001.26
2019-03-23T01:46:39.101Z,1001.3
2019-03-23T01:47:39.088Z,1001.26
2019-03-23T01:48:39.072Z,1001.3
2019-03-23T01:49:39.071Z,1001.34
2019-03-23T01:50:39.062Z,1001.32
2019-03-23T01:51:39.052Z,1001.34
2019-03-23T01:52:39.052Z,1001.31
2019-03-23T01:53:39.038Z,1001.34
2019-03-23T01:54:39.032Z,1001.34
2019-03-23T01:55:39.023Z,1001.29
2019-03-23T01:56:39.015Z,1001.31
2019-03-23T01:57:39.004Z,1001.31
2019-03-23T01:58:39.009Z,1001.31
2019-03-23T01:59:39.000Z,1001.31
2019-03-23T02:00:38.995Z,1001.27
2019-03-23T02:01:38.977Z,1001.27
2019-03-23T02:02:38.969Z,1001.31
2019-03-23T02:03:38.958Z,1001.29
2019-03-23T02:04:38.950Z,1001.36
2019-03-23T02:05:38.947Z,1001.33
2019-03-23T02:06:38.962Z,1001.38
2019-03-23T02:07:38.922Z,1001.34
2019-03-23T02:08:38.919Z,1001.41
2019-03-23T02:09:38.916Z,1001.4
2019-03-23T02:10:38.897Z,1001.4
2019-03-23T02:11:38.893Z,1001.44
2019-03-23T02:12:38.885Z,1001.48
2019-03-23T02:13:38.899Z,1001.44
2019-03-23T02:14:38.873Z,1001.47
2019-03-23T02:15:38.859Z,1001.49
2019-03-23T02:16:38.851Z,1001.47
2019-03-23T02:17:38.895Z,1001.45
2019-03-23T02:18:38.838Z,1001.5
2019-03-23T02:19:38.832Z,1001.52
2019-03-23T02:20:38.822Z,1001.52
2019-03-23T02:21:38.812Z,1001.49
2019-03-23T02:22:38.813Z,1001.52
2019-03-23T02:23:38.807Z,1001.52
2019-03-23T02:24:38.802Z,1001.55
2019-03-23T02:25:38.781Z,1001.52
2019-03-23T02:26:38.771Z,1001.52
2019-03-23T02:27:38.769Z,1001.51
2019-03-23T02:28:38.767Z,1001.52
2019-03-23T02:29:38.760Z,1001.53
2019-03-23T02:30:38.755Z,1001.54
2019-03-23T02:31:38.745Z,1001.52
2019-03-23T02:32:38.723Z,1001.57
2019-03-23T02:33:38.714Z,1001.58
2019-03-23T02:34:38.713Z,1001.58
2019-03-23T02:35:38.697Z,1001.59
2019-03-23T02:36:38.689Z,1001.57
2019-03-23T02:37:38.685Z,1001.58
2019-03-23T02:38:38.677Z,1001.56
2019-03-23T02:39:38.661Z,1001.59
2019-03-23T02:40:38.654Z,1001.58
2019-03-23T02:41:38.649Z,1001.58
2019-03-23T02:42:38.658Z,1001.57
2019-03-23T02:43:38.628Z,1001.59
2019-03-23T02:44:38.620Z,1001.52
2019-03-23T02:45:38.630Z,1001.53
2019-03-23T02:46:38.608Z,1001.58
2019-03-23T02:47:38.593Z,1001.54
2019-03-23T02:48:38.585Z,1001.55
2019-03-23T02:49:38.582Z,1001.6
2019-03-23T02:50:38.578Z,1001.6
2019-03-23T02:51:39.789Z,1001.61
2019-03-23T02:52:38.553Z,1001.58
2019-03-23T02:53:38.548Z,1001.55
2019-03-23T02:54:38.531Z,1001.59
2019-03-23T02:55:38.528Z,1001.63
2019-03-23T02:56:38.513Z,1001.55
2019-03-23T02:57:38.529Z,1001.56
2019-03-23T02:58:38.505Z,1001.59
2019-03-23T02:59:38.491Z,1001.6
2019-03-23T03:00:38.495Z,1001.6
2019-03-23T03:01:38.472Z,1001.6
2019-03-23T03:02:38.461Z,1001.58
2019-03-23T03:03:38.457Z,1001.59
2019-03-23T03:04:38.450Z,1001.56
2019-03-23T03:05:38.441Z,1001.58
2019-03-23T03:06:38.435Z,1001.53
2019-03-23T03:07:42.203Z,1001.52
2019-03-23T03:08:38.416Z,1001.52
2019-03-23T03:09:38.403Z,1001.5
2019-03-23T03:10:38.391Z,1001.51
2019-03-23T03:11:38.396Z,1001.49
2019-03-23T03:12:38.395Z,1001.46
2019-03-23T03:13:38.386Z,1001.48
2019-03-23T03:14:38.361Z,1001.47
2019-03-23T03:15:38.347Z,1001.5
2019-03-23T03:16:38.344Z,1001.52
2019-03-23T03:17:38.330Z,1001.5
2019-03-23T03:18:38.330Z,1001.54
2019-03-23T03:19:38.343Z,1001.52
2019-03-23T03:20:38.302Z,1001.58
2019-03-23T03:21:38.298Z,1001.56
2019-03-23T03:22:38.295Z,1001.52
2019-03-23T03:23:38.273Z,1001.49
2019-03-23T03:24:38.271Z,1001.52
2019-03-23T03:25:38.258Z,1001.47
2019-03-23T03:26:38.249Z,1001.44
2019-03-23T03:27:38.250Z,1001.48
2019-03-23T03:28:38.229Z,1001.46
2019-03-23T03:29:38.222Z,1001.42
2019-03-23T03:30:38.286Z,1001.42
2019-03-23T03:31:38.230Z,1001.43
2019-03-23T03:32:38.223Z,1001.48
2019-03-23T03:33:38.191Z,1001.48
2019-03-23T03:34:38.175Z,1001.48
2019-03-23T03:35:38.193Z,1001.47
2019-03-23T03:36:38.161Z,1001.47
2019-03-23T03:37:38.157Z,1001.49
2019-03-23T03:38:38.139Z,1001.49
2019-03-23T03:39:38.132Z,1001.46
2019-03-23T03:40:38.119Z,1001.48
2019-03-23T03:41:38.113Z,1001.53
2019-03-23T03:42:38.103Z,1001.44
2019-03-23T03:43:38.104Z,1001.49
2019-03-23T03:44:38.081Z,1001.42
2019-03-23T03:45:38.081Z,1001.43
2019-03-23T03:46:38.062Z,1001.44
2019-03-23T03:47:40.977Z,1001.41
2019-03-23T03:48:38.057Z,1001.41
2019-03-23T03:49:38.034Z,1001.42
2019-03-23T03:50:38.328Z,1001.37
2019-03-23T03:51:38.018Z,1001.41
2019-03-23T03:52:38.014Z,1001.41
2019-03-23T03:53:38.061Z,1001.44
2019-03-23T03:54:37.988Z,1001.41
2019-03-23T03:55:37.983Z,1001.43
2019-03-23T03:56:37.980Z,1001.4
2019-03-23T03:57:37.964Z,1001.44
2019-03-23T03:58:37.969Z,1001.4
2019-03-23T03:59:37.959Z,1001.42
2019-03-23T04:00:37.935Z,1001.4
2019-03-23T04:01:37.928Z,1001.39
2019-03-23T04:02:37.927Z,1001.37
2019-03-23T04:03:37.906Z,1001.36
2019-03-23T04:04:37.898Z,1001.4
2019-03-23T04:05:37.887Z,1001.35
2019-03-23T04:06:37.878Z,1001.43
2019-03-23T04:07:37.894Z,1001.38
2019-03-23T04:08:37.878Z,1001.34
2019-03-23T04:09:40.250Z,1001.37
2019-03-23T04:10:37.840Z,1001.4
2019-03-23T04:11:37.829Z,1001.41
2019-03-23T04:12:37.823Z,1001.47
2019-03-23T04:13:37.812Z,1001.44
2019-03-23T04:14:37.815Z,1001.45
2019-03-23T04:15:37.799Z,1001.44
2019-03-23T04:16:37.784Z,1001.5
2019-03-23T04:17:37.775Z,1001.45
2019-03-23T04:18:37.766Z,1001.45
2019-03-23T04:19:37.757Z,1001.46
2019-03-23T04:20:37.744Z,1001.48
2019-03-23T04:21:37.736Z,1001.47
2019-03-23T04:22:37.730Z,1001.44
2019-03-23T04:23:37.717Z,1001.42
2019-03-23T04:24:37.712Z,1001.44
2019-03-23T04:25:37.706Z,1001.45
2019-03-23T04:26:39.248Z,1001.45
2019-03-23T04:27:37.681Z,1001.47
2019-03-23T04:28:37.668Z,1001.49
2019-03-23T04:29:37.674Z,1001.45
2019-03-23T04:30:37.648Z,1001.44
2019-03-23T04:31:37.638Z,1001.47
2019-03-23T04:32:37.630Z,1001.52
2019-03-23T04:33:37.628Z,1001.45
2019-03-23T04:34:37.612Z,1001.51
2019-03-23T04:35:37.600Z,1001.51
2019-03-23T04:36:37.595Z,1001.54
2019-03-23T04:37:37.589Z,1001.53
2019-03-23T04:38:37.574Z,1001.55
2019-03-23T04:39:37.569Z,1001.54
2019-03-23T04:40:37.552Z,1001.57
2019-03-23T04:41:37.548Z,1001.51
2019-03-23T04:42:37.536Z,1001.48
2019-03-23T04:43:37.522Z,1001.5
2019-03-23T04:44:37.514Z,1001.41
2019-03-23T04:45:37.503Z,1001.41
2019-03-23T04:46:37.493Z,1001.46
2019-03-23T04:47:37.665Z,1001.47
2019-03-23T04:48:37.476Z,1001.5
2019-03-23T04:49:37.465Z,1001.47
2019-03-23T04:50:37.459Z,1001.51
2019-03-23T04:51:37.444Z,1001.46
2019-03-23T04:52:37.437Z,1001.49
2019-03-23T04:53:37.430Z,1001.5
2019-03-23T04:54:38.932Z,1001.49
2019-03-23T04:55:37.408Z,1001.47
2019-03-23T04:56:37.403Z,1001.48
2019-03-23T04:57:37.389Z,1001.44
2019-03-23T04:58:37.378Z,1001.5
2019-03-23T04:59:37.372Z,1001.53
2019-03-23T05:00:37.359Z,1001.55
2019-03-23T05:01:37.356Z,1001.49
2019-03-23T05:02:37.347Z,1001.53
2019-03-23T05:03:37.331Z,1001.52
2019-03-23T05:04:37.332Z,1001.54
2019-03-23T05:05:37.310Z,1001.49
2019-03-23T05:06:37.304Z,1001.53
2019-03-23T05:07:37.293Z,1001.55
2019-03-23T05:08:37.283Z,1001.52
2019-03-23T05:09:37.275Z,1001.52
2019-03-23T05:10:37.265Z,1001.54
2019-03-23T05:11:37.258Z,1001.53
2019-03-23T05:12:37.251Z,1001.56
2019-03-23T05:13:37.239Z,1001.54
2019-03-23T05:14:37.233Z,1001.54
2019-03-23T05:15:37.218Z,1001.56
2019-03-23T05:16:37.216Z,1001.56
2019-03-23T05:17:37.207Z,1001.55
2019-03-23T05:18:37.192Z,1001.6
2019-03-23T05:19:37.189Z,1001.58
2019-03-23T05:20:37.169Z,1001.6
2019-03-23T05:21:37.163Z,1001.62
2019-03-23T05:22:37.152Z,1001.59
2019-03-23T05:23:37.142Z,1001.65
2019-03-23T05:24:37.135Z,1001.68
2019-03-23T05:25:37.124Z,1001.73
2019-03-23T05:26:37.124Z,1001.67
2019-03-23T05:27:37.104Z,1001.66
2019-03-23T05:28:37.101Z,1001.71
2019-03-23T05:29:37.087Z,1001.71
2019-03-23T05:30:37.079Z,1001.71
2019-03-23T05:31:37.081Z,1001.68
2019-03-23T05:32:37.064Z,1001.68
2019-03-23T05:33:37.083Z,1001.7
2019-03-23T05:34:37.040Z,1001.74
2019-03-23T05:35:37.031Z,1001.76
2019-03-23T05:36:37.024Z,1001.77
2019-03-23T05:37:37.014Z,1001.77
2019-03-23T05:38:44.135Z,1001.77
2019-03-23T05:39:36.997Z,1001.8
2019-03-23T05:40:36.988Z,1001.77
2019-03-23T05:41:36.978Z,1001.82
2019-03-23T05:42:36.977Z,1001.79
2019-03-23T05:43:36.960Z,1001.74
2019-03-23T05:44:36.958Z,1001.76
2019-03-23T05:45:36.943Z,1001.78
2019-03-23T05:46:36.934Z,1001.73
2019-03-23T05:47:36.925Z,1001.77
2019-03-23T05:48:36.915Z,1001.83
2019-03-23T05:49:36.919Z,1001.8
2019-03-23T05:50:36.940Z,1001.76
2019-03-23T05:51:36.892Z,1001.76
2019-03-23T05:52:36.889Z,1001.78
2019-03-23T05:53:36.868Z,1001.8
2019-03-23T05:54:36.861Z,1001.8
2019-03-23T05:55:36.848Z,1001.78
2019-03-23T05:56:36.852Z,1001.82
2019-03-23T05:57:36.839Z,1001.8
2019-03-23T05:58:36.830Z,1001.83
2019-03-23T05:59:36.812Z,1001.86
2019-03-23T06:00:36.803Z,1001.87
2019-03-23T06:01:36.797Z,1001.87
2019-03-23T06:02:36.785Z,1001.83
2019-03-23T06:03:36.779Z,1001.82
2019-03-23T06:04:36.777Z,1001.89
2019-03-23T06:05:36.757Z,1001.87
2019-03-23T06:06:36.749Z,1001.87
2019-03-23T06:07:36.736Z,1001.91
2019-03-23T06:08:36.725Z,1001.92
2019-03-23T06:09:36.719Z,1001.89
2019-03-23T06:10:36.710Z,1001.95
2019-03-23T06:11:36.699Z,1001.89
2019-03-23T06:12:36.690Z,1001.89
2019-03-23T06:13:36.683Z,1001.92
2019-03-23T06:14:36.667Z,1001.98
2019-03-23T06:15:36.657Z,1001.93
2019-03-23T06:16:36.649Z,1001.91
2019-03-23T06:17:36.642Z,1001.93
2019-03-23T06:18:36.629Z,1001.93
2019-03-23T06:19:36.619Z,1001.99
2019-03-23T06:20:36.611Z,1001.95
2019-03-23T06:21:36.603Z,1001.94
2019-03-23T06:22:36.590Z,1002
2019-03-23T06:23:36.583Z,1001.95
2019-03-23T06:24:36.577Z,1002.02
2019-03-23T06:25:36.570Z,1002
2019-03-23T06:26:36.553Z,1001.99
2019-03-23T06:27:36.545Z,1001.93
2019-03-23T06:28:36.535Z,1001.94
2019-03-23T06:29:36.576Z,1001.96
2019-03-23T06:30:36.531Z,1001.97
2019-03-23T06:31:36.513Z,1001.95
2019-03-23T06:32:36.499Z,1001.97
2019-03-23T06:33:36.491Z,1001.98
2019-03-23T06:34:36.487Z,1001.97
2019-03-23T06:35:36.479Z,1002
2019-03-23T06:36:36.468Z,1001.96
2019-03-23T06:37:36.459Z,1001.96
2019-03-23T06:38:36.455Z,1001.96
2019-03-23T06:39:36.442Z,1001.95
2019-03-23T06:40:36.434Z,1001.91
2019-03-23T06:41:36.421Z,1001.9
2019-03-23T06:42:36.419Z,1001.87
2019-03-23T06:43:36.431Z,1001.9
2019-03-23T06:44:36.394Z,1001.83
2019-03-23T06:45:36.405Z,1001.88
2019-03-23T06:46:36.386Z,1001.86
2019-03-23T06:47:36.388Z,1001.91
2019-03-23T06:48:36.367Z,1001.92
2019-03-23T06:49:36.351Z,1001.98
2019-03-23T06:50:36.368Z,1001.96
2019-03-23T06:51:36.345Z,1001.89
2019-03-23T06:52:36.331Z,1001.97
2019-03-23T06:53:36.326Z,1001.92
2019-03-23T06:54:36.318Z,1001.94
2019-03-23T06:55:36.309Z,1001.9
2019-03-23T06:56:36.299Z,1001.91
2019-03-23T06:57:36.296Z,1001.97
2019-03-23T06:58:38.502Z,1001.98
2019-03-23T06:59:36.269Z,1001.93
2019-03-23T07:00:36.316Z,1001.92
2019-03-23T07:01:36.254Z,1001.91
2019-03-23T07:02:36.254Z,1001.92
2019-03-23T07:03:36.240Z,1001.88
2019-03-23T07:04:36.231Z,1001.92
2019-03-23T07:05:36.229Z,1001.91
2019-03-23T07:06:36.217Z,1001.91
2019-03-23T07:07:36.211Z,1001.94
2019-03-23T07:08:36.202Z,1001.95
2019-03-23T07:09:36.195Z,1001.94
2019-03-23T07:10:36.193Z,1001.97
2019-03-23T07:11:36.187Z,1001.93
2019-03-23T07:12:36.179Z,1001.99
2019-03-23T07:13:36.172Z,1001.93
2019-03-23T07:14:36.168Z,1001.95
2019-03-23T07:15:36.164Z,1001.95
2019-03-23T07:16:36.158Z,1001.93
2019-03-23T07:17:36.154Z,1001.94
2019-03-23T07:18:36.150Z,1001.95
2019-03-23T07:19:36.143Z,1001.94
2019-03-23T07:20:36.149Z,1001.9
2019-03-23T07:21:36.137Z,1001.99
2019-03-23T07:22:36.133Z,1001.98
2019-03-23T07:23:36.132Z,1001.98
2019-03-23T07:24:36.128Z,1001.99
2019-03-23T07:25:36.128Z,1002.03
2019-03-23T07:26:36.129Z,1001.96
2019-03-23T07:27:36.126Z,1001.98
2019-03-23T07:28:36.117Z,1002.02
2019-03-23T07:29:36.120Z,1002
2019-03-23T07:30:36.115Z,1001.98
2019-03-23T07:31:36.119Z,1001.99
2019-03-23T07:32:36.113Z,1001.96
2019-03-23T07:33:36.110Z,1002.01
2019-03-23T07:34:36.116Z,1001.91
2019-03-23T07:35:36.109Z,1001.97
2019-03-23T07:36:36.109Z,1002.01
2019-03-23T07:37:36.112Z,1001.95
2019-03-23T07:38:36.107Z,1001.95
2019-03-23T07:39:36.116Z,1001.9
2019-03-23T07:40:36.110Z,1001.91
2019-03-23T07:41:36.110Z,1001.91
2019-03-23T07:42:36.120Z,1001.92
2019-03-23T07:43:36.108Z,1001.94
2019-03-23T07:44:36.106Z,1001.91
2019-03-23T07:45:36.155Z,1001.92
2019-03-23T07:46:36.192Z,1001.93
2019-03-23T07:47:36.108Z,1001.93
2019-03-23T07:48:36.109Z,1001.94
2019-03-23T07:49:36.108Z,1001.91
2019-03-23T07:50:36.111Z,1001.94
2019-03-23T07:51:36.111Z,1001.98
2019-03-23T07:52:36.106Z,1001.94
2019-03-23T07:53:36.111Z,1001.93
2019-03-23T07:54:36.113Z,1001.93
2019-03-23T07:55:36.112Z,1001.89
2019-03-23T07:56:36.110Z,1001.83
2019-03-23T07:57:36.112Z,1001.85
2019-03-23T07:58:36.115Z,1001.82
2019-03-23T07:59:36.201Z,1001.86
2019-03-23T08:00:36.118Z,1001.88
2019-03-23T08:01:36.116Z,1001.87
2019-03-23T08:02:36.119Z,1001.82
2019-03-23T08:03:36.119Z,1001.83
2019-03-23T08:04:36.124Z,1001.91
2019-03-23T08:05:36.119Z,1001.91
2019-03-23T08:06:36.123Z,1001.87
2019-03-23T08:07:36.122Z,1001.88
2019-03-23T08:08:36.125Z,1001.86
2019-03-23T08:09:37.730Z,1001.83
2019-03-23T08:10:36.128Z,1001.84
2019-03-23T08:11:36.123Z,1001.85
2019-03-23T08:12:36.123Z,1001.85
2019-03-23T08:13:36.125Z,1001.85
2019-03-23T08:14:36.294Z,1001.81
2019-03-23T08:15:36.137Z,1001.84
2019-03-23T08:16:36.125Z,1001.82
2019-03-23T08:17:36.132Z,1001.8
2019-03-23T08:18:36.126Z,1001.84
2019-03-23T08:19:36.132Z,1001.8
2019-03-23T08:20:36.192Z,1001.81
2019-03-23T08:21:36.130Z,1001.83
2019-03-23T08:22:36.130Z,1001.81
2019-03-23T08:23:36.128Z,1001.86
2019-03-23T08:24:36.137Z,1001.84
2019-03-23T08:25:36.137Z,1001.85
2019-03-23T08:26:36.131Z,1001.86
2019-03-23T08:27:36.131Z,1001.91
2019-03-23T08:28:36.134Z,1001.88
2019-03-23T08:29:36.140Z,1001.91
2019-03-23T08:30:36.135Z,1001.95
2019-03-23T08:31:36.138Z,1001.87
2019-03-23T08:32:36.142Z,1001.86
2019-03-23T08:33:36.140Z,1001.88
2019-03-23T08:34:36.140Z,1001.91
2019-03-23T08:35:36.140Z,1001.89
2019-03-23T08:36:36.145Z,1001.91
2019-03-23T08:37:36.171Z,1001.93
2019-03-23T08:38:36.142Z,1001.9
2019-03-23T08:39:36.147Z,1001.92
2019-03-23T08:40:36.142Z,1001.94
2019-03-23T08:41:36.145Z,1001.91
2019-03-23T08:42:36.149Z,1001.93
2019-03-23T08:43:36.135Z,1001.89
2019-03-23T08:44:36.178Z,1001.93
2019-03-23T08:45:36.135Z,1001.92
2019-03-23T08:46:36.135Z,1001.91
2019-03-23T08:47:36.139Z,1001.89
2019-03-23T08:48:36.131Z,1001.84
2019-03-23T08:49:36.128Z,1001.88
2019-03-23T08:50:36.127Z,1001.84
2019-03-23T08:51:36.123Z,1001.86
2019-03-23T08:52:36.123Z,1001.81
2019-03-23T08:53:36.923Z,1001.86
2019-03-23T08:54:36.117Z,1001.85
2019-03-23T08:55:36.115Z,1001.87
2019-03-23T08:56:37.441Z,1001.86
2019-03-23T08:57:36.110Z,1001.84
2019-03-23T08:58:36.110Z,1001.82
2019-03-23T08:59:36.108Z,1001.83
2019-03-23T09:00:36.104Z,1001.85
2019-03-23T09:01:36.103Z,1001.86
2019-03-23T09:02:36.100Z,1001.87
2019-03-23T09:03:36.095Z,1001.89
2019-03-23T09:04:36.096Z,1001.88
2019-03-23T09:05:36.092Z,1001.92
2019-03-23T09:06:36.097Z,1001.92
2019-03-23T09:07:36.097Z,1001.91
2019-03-23T09:08:36.084Z,1001.94
2019-03-23T09:09:36.078Z,1001.93
2019-03-23T09:10:36.074Z,1001.92
2019-03-23T09:11:36.076Z,1001.97
2019-03-23T09:12:36.071Z,1001.94
2019-03-23T09:13:40.405Z,1001.87
2019-03-23T09:14:36.063Z,1001.91
2019-03-23T09:15:36.078Z,1001.88
2019-03-23T09:16:36.057Z,1001.92
2019-03-23T09:17:36.055Z,1001.83
2019-03-23T09:18:36.050Z,1001.79
2019-03-23T09:19:36.051Z,1001.83
2019-03-23T09:20:36.045Z,1001.8
2019-03-23T09:21:36.044Z,1001.82
2019-03-23T09:22:36.045Z,1001.81
2019-03-23T09:23:36.086Z,1001.81
2019-03-23T09:24:36.047Z,1001.85
2019-03-23T09:25:36.035Z,1001.84
2019-03-23T09:26:36.033Z,1001.83
2019-03-23T09:27:36.034Z,1001.81
2019-03-23T09:28:36.031Z,1001.84
2019-03-23T09:29:36.037Z,1001.83
2019-03-23T09:30:36.049Z,1001.84
2019-03-23T09:31:36.024Z,1001.86
2019-03-23T09:32:36.021Z,1001.83
2019-03-23T09:33:36.015Z,1001.85
2019-03-23T09:34:36.017Z,1001.85
2019-03-23T09:35:39.268Z,1001.88
2019-03-23T09:36:36.010Z,1001.84
2019-03-23T09:37:38.011Z,1001.84
2019-03-23T09:38:36.004Z,1001.85
2019-03-23T09:39:36.002Z,1001.82
2019-03-23T09:40:36.001Z,1001.79
2019-03-23T09:41:36.001Z,1001.81
2019-03-23T09:42:36.008Z,1001.81
2019-03-23T09:43:36.010Z,1001.81
2019-03-23T09:44:35.993Z,1001.78
2019-03-23T09:45:35.992Z,1001.77
2019-03-23T09:46:35.991Z,1001.75
2019-03-23T09:47:35.993Z,1001.74
2019-03-23T09:48:35.988Z,1001.76
2019-03-23T09:49:35.990Z,1001.75
2019-03-23T09:50:35.990Z,1001.71
2019-03-23T09:51:35.983Z,1001.69
2019-03-23T09:52:35.984Z,1001.69
2019-03-23T09:53:35.987Z,1001.68
2019-03-23T09:54:35.982Z,1001.69
2019-03-23T09:55:35.987Z,1001.64
2019-03-23T09:56:35.985Z,1001.62
2019-03-23T09:57:35.990Z,1001.59
2019-03-23T09:58:35.978Z,1001.64
2019-03-23T09:59:35.978Z,1001.63
2019-03-23T10:00:35.976Z,1001.58
2019-03-23T10:01:35.972Z,1001.6
2019-03-23T10:02:35.968Z,1001.56
2019-03-23T10:03:35.970Z,1001.57
2019-03-23T10:04:35.965Z,1001.54
2019-03-23T10:05:35.965Z,1001.51
2019-03-23T10:06:35.966Z,1001.53
2019-03-23T10:07:35.965Z,1001.51
2019-03-23T10:08:35.963Z,1001.57
2019-03-23T10:09:35.962Z,1001.53
2019-03-23T10:10:35.962Z,1001.47
2019-03-23T10:11:35.967Z,1001.52
2019-03-23T10:12:35.971Z,1001.52
2019-03-23T10:13:35.962Z,1001.5
2019-03-23T10:14:35.959Z,1001.49
2019-03-23T10:15:35.957Z,1001.45
2019-03-23T10:16:35.961Z,1001.47
2019-03-23T10:17:35.960Z,1001.46
2019-03-23T10:18:35.957Z,1001.46
2019-03-23T10:19:35.953Z,1001.42
2019-03-23T10:20:35.952Z,1001.43
2019-03-23T10:21:35.955Z,1001.42
2019-03-23T10:22:35.963Z,1001.36
2019-03-23T10:23:35.954Z,1001.34
2019-03-23T10:24:35.959Z,1001.34
2019-03-23T10:25:35.950Z,1001.37
2019-03-23T10:26:35.961Z,1001.36
2019-03-23T10:27:35.954Z,1001.37
2019-03-23T10:28:35.949Z,1001.36
2019-03-23T10:29:35.952Z,1001.29
2019-03-23T10:30:35.955Z,1001.34
2019-03-23T10:31:35.947Z,1001.28
2019-03-23T10:32:35.952Z,1001.24
2019-03-23T10:33:35.953Z,1001.24
2019-03-23T10:34:35.954Z,1001.21
2019-03-23T10:35:35.962Z,1001.27
2019-03-23T10:36:35.955Z,1001.19
2019-03-23T10:37:35.942Z,1001.22
2019-03-23T10:38:35.941Z,1001.21
2019-03-23T10:39:35.944Z,1001.21
2019-03-23T10:40:35.946Z,1001.15
2019-03-23T10:41:35.942Z,1001.13
2019-03-23T10:42:35.947Z,1001.14
2019-03-23T10:43:35.946Z,1001.13
2019-03-23T10:44:35.955Z,1001.15
2019-03-23T10:45:43.772Z,1001.14
2019-03-23T10:46:35.948Z,1001.16
2019-03-23T10:47:35.970Z,1001.1
2019-03-23T10:48:35.962Z,1001.15
2019-03-23T10:49:35.946Z,1001.11
2019-03-23T10:50:35.938Z,1001.13
2019-03-23T10:51:35.938Z,1001.15
2019-03-23T10:52:35.947Z,1001.13
2019-03-23T10:53:35.941Z,1001.14
2019-03-23T10:54:35.938Z,1001.09
2019-03-23T10:55:35.939Z,1001.09
2019-03-23T10:56:35.938Z,1001.12
2019-03-23T10:57:35.938Z,1001.06
2019-03-23T10:58:35.937Z,1001.05
2019-03-23T10:59:35.939Z,1001.1
2019-03-23T11:00:35.960Z,1001.07
2019-03-23T11:01:35.937Z,1001.07
2019-03-23T11:02:35.943Z,1001.1
2019-03-23T11:03:35.943Z,1001.05
2019-03-23T11:04:35.937Z,1001.13
2019-03-23T11:05:35.937Z,1001.12
2019-03-23T11:06:35.947Z,1001.09
2019-03-23T11:07:35.936Z,1001.06
2019-03-23T11:08:35.941Z,1001.06
2019-03-23T11:09:35.935Z,1001.05
2019-03-23T11:10:41.492Z,1001.09
2019-03-23T11:11:35.939Z,1001.06
2019-03-23T11:12:37.105Z,1001.05
2019-03-23T11:13:35.946Z,1001.09
2019-03-23T11:14:35.947Z,1001.05
2019-03-23T11:15:35.934Z,1001.08
2019-03-23T11:16:35.933Z,1001.06
2019-03-23T11:17:35.934Z,1001.07
2019-03-23T11:18:37.728Z,1001.08
2019-03-23T11:19:35.936Z,1001.09
2019-03-23T11:20:35.932Z,1001.09
2019-03-23T11:21:35.930Z,1001.06
2019-03-23T11:22:35.935Z,1001.07
2019-03-23T11:23:35.932Z,1001.05
2019-03-23T11:24:36.179Z,1001.08
2019-03-23T11:25:35.930Z,1001.04
2019-03-23T11:26:35.932Z,1001.1
2019-03-23T11:27:35.930Z,1001.04
2019-03-23T11:28:35.940Z,1001.07
2019-03-23T11:29:35.939Z,1001.02
2019-03-23T11:30:35.939Z,1001.04
2019-03-23T11:31:35.928Z,1001.04
2019-03-23T11:32:35.930Z,1001.03
2019-03-23T11:33:35.944Z,1001
2019-03-23T11:34:35.927Z,1001
2019-03-23T11:35:35.926Z,1000.96
2019-03-23T11:36:35.937Z,1000.98
2019-03-23T11:37:36.078Z,1001
2019-03-23T11:38:35.925Z,1001
2019-03-23T11:39:35.926Z,1001.03
2019-03-23T11:40:35.925Z,1001.02
2019-03-23T11:41:35.926Z,1000.98
2019-03-23T11:42:35.926Z,1001.01
2019-03-23T11:43:35.929Z,1000.99
2019-03-23T11:44:35.925Z,1000.96
2019-03-23T11:45:35.933Z,1001.01
2019-03-23T11:46:35.928Z,1001.01
2019-03-23T11:47:35.924Z,1001
2019-03-23T11:48:35.930Z,1000.95
2019-03-23T11:49:35.931Z,1000.94
2019-03-23T11:50:35.927Z,1000.98
2019-03-23T11:51:35.927Z,1000.89
2019-03-23T11:52:35.937Z,1000.93
2019-03-23T11:53:35.927Z,1000.95
2019-03-23T11:54:35.928Z,1000.92
2019-03-23T11:55:35.923Z,1000.87
2019-03-23T11:56:35.947Z,1000.96
2019-03-23T11:57:35.922Z,1000.89
2019-03-23T11:58:35.925Z,1000.9
2019-03-23T11:59:35.941Z,1000.87
2019-03-23T12:00:35.950Z,1000.89
2019-03-23T12:01:35.923Z,1000.9
2019-03-23T12:02:35.921Z,1000.86
2019-03-23T12:03:35.922Z,1000.9
2019-03-23T12:04:35.920Z,1000.9
2019-03-23T12:05:35.921Z,1000.87
2019-03-23T12:06:35.920Z,1000.82
2019-03-23T12:07:35.924Z,1000.87
2019-03-23T12:08:35.921Z,1000.86